Time;durP1;ratioP1;P1;durP2;ratioP2;P2;SDS_P1;SDS_P2;PMS_P1;PMS_P2;Temp;Humidity;BMP_temperature;BMP_pressure;BME280_temperature;BME280_humidity;BME280_pressure;Samples;Min_cycle;Max_cycle;Signal;HPM_P1;HPM_P2
2023/12/01 00:00:35;;;;;;;24.40;17.45;;;;;;;1.29;100.00;96122.69;1225064;75;2919380;-64
2023/12/01 00:03:08;;;;;;;22.75;17.65;;;;;;;1.43;100.00;96132.09;1225767;75;2912532;-64
2023/12/01 00:05:41;;;;;;;20.90;16.45;;;;;;;1.47;100.00;96127.31;1225944;75;2916902;-62
2023/12/01 00:08:13;;;;;;;19.85;16.20;;;;;;;1.59;100.00;96122.94;1225772;75;2921166;-64
2023/12/01 00:10:49;;;;;;;16.95;13.45;;;;;;;1.46;100.00;96128.50;1225244;75;2919648;-64
2023/12/01 00:13:22;;;;;;;22.30;15.40;;;;;;;1.37;100.00;96131.22;1225678;75;2923731;-64
2023/12/01 00:15:55;;;;;;;21.55;15.90;;;;;;;1.43;100.00;96132.84;1224672;75;2913585;-64
2023/12/01 00:18:28;;;;;;;19.30;15.15;;;;;;;1.49;100.00;96133.75;1225497;75;2920416;-64
2023/12/01 00:21:00;;;;;;;21.90;15.50;;;;;;;1.52;100.00;96140.19;1225795;75;2925339;-64
2023/12/01 00:23:33;;;;;;;21.30;15.10;;;;;;;1.38;100.00;96128.06;1225915;75;2915420;-62
2023/12/01 00:26:09;;;;;;;18.15;13.25;;;;;;;1.57;100.00;96131.50;1225191;75;2913792;-64
2023/12/01 00:28:42;;;;;;;16.50;12.20;;;;;;;1.63;100.00;96134.31;1225482;75;2914710;-67
2023/12/01 00:31:15;;;;;;;13.20;10.95;;;;;;;1.68;100.00;96150.66;1224921;75;2916225;-65
2023/12/01 00:33:48;;;;;;;17.95;12.90;;;;;;;1.61;100.00;96150.19;1225125;75;2915714;-64
2023/12/01 00:36:21;;;;;;;16.70;12.25;;;;;;;1.65;100.00;96150.78;1225686;75;2917713;-64
2023/12/01 00:38:53;;;;;;;19.90;16.05;;;;;;;1.43;100.00;96157.13;1226104;75;2896821;-63
2023/12/01 00:41:29;;;;;;;30.10;20.85;;;;;;;1.10;100.00;96165.06;1225212;75;2919546;-67
2023/12/01 00:44:02;;;;;;;29.10;21.55;;;;;;;1.08;100.00;96172.84;1225229;75;2927488;-63
2023/12/01 00:46:35;;;;;;;28.40;22.55;;;;;;;0.98;100.00;96174.03;1225070;75;2916854;-61
2023/12/01 00:49:07;;;;;;;33.20;23.45;;;;;;;1.14;100.00;96165.66;1225024;75;2928790;-66
2023/12/01 00:51:43;;;;;;;27.85;21.40;;;;;;;1.08;100.00;96170.16;1225471;75;2920933;-64
2023/12/01 00:54:16;;;;;;;30.95;21.30;;;;;;;1.21;100.00;96161.94;1225431;75;2920118;-65
2023/12/01 00:56:52;;;;;;;24.25;17.90;;;;;;;1.26;100.00;96172.84;1225514;75;2921623;-63
2023/12/01 00:59:25;;;;;;;23.95;17.65;;;;;;;1.33;100.00;96177.22;1225562;75;2923392;-65
2023/12/01 01:01:57;;;;;;;27.15;18.70;;;;;;;1.27;100.00;96184.38;1225203;75;2915191;-61
2023/12/01 01:04:30;;;;;;;18.55;14.70;;;;;;;1.60;100.00;96179.13;1226470;67;2915636;-63
2023/12/01 01:07:03;;;;;;;17.65;13.60;;;;;;;1.72;100.00;96190.19;1225997;75;2912544;-64
2023/12/01 01:09:36;;;;;;;15.80;12.00;;;;;;;1.57;100.00;96193.50;1224858;75;2917497;-63
2023/12/01 01:12:12;;;;;;;19.40;14.75;;;;;;;1.43;100.00;96191.44;1225306;75;2913556;-65
2023/12/01 01:14:45;;;;;;;21.90;17.00;;;;;;;1.37;100.00;96195.91;1224913;75;2928393;-63
2023/12/01 01:17:18;;;;;;;22.50;16.05;;;;;;;1.56;100.00;96189.31;1224173;75;2927542;-63
2023/12/01 01:19:51;;;;;;;20.50;16.10;;;;;;;1.42;100.00;96190.69;1225260;75;2915832;-63
2023/12/01 01:22:23;;;;;;;19.55;14.90;;;;;;;1.56;100.00;96181.22;1225391;75;2920916;-64
2023/12/01 01:24:56;;;;;;;25.60;19.80;;;;;;;1.34;100.00;96194.13;1224935;75;2919425;-64
2023/12/01 01:27:32;;;;;;;27.90;20.40;;;;;;;1.45;100.00;96192.47;1225738;75;2897437;-62
2023/12/01 01:30:05;;;;;;;25.50;18.10;;;;;;;1.60;100.00;96189.16;1225297;75;2922359;-64
2023/12/01 01:32:37;;;;;;;19.20;15.65;;;;;;;1.61;100.00;96196.03;1225119;75;2920495;-62
2023/12/01 01:35:12;;;;;;;16.90;13.20;;;;;;;1.72;100.00;96192.91;1225295;75;2918024;-65
2023/12/01 01:37:45;;;;;;;16.40;12.95;;;;;;;1.47;100.00;96187.38;1225131;75;2936154;-63
2023/12/01 01:40:18;;;;;;;17.05;13.65;;;;;;;1.63;100.00;96189.00;1224155;75;2974884;-64
2023/12/01 01:42:54;;;;;;;15.30;12.15;;;;;;;1.80;100.00;96189.41;1225556;75;2917589;-64
2023/12/01 01:45:27;;;;;;;14.15;10.80;;;;;;;1.61;100.00;96188.72;1225052;67;2915735;-65
2023/12/01 01:48:01;;;;;;;20.15;14.75;;;;;;;1.64;100.00;96195.16;1224403;75;2915106;-64
2023/12/01 01:50:34;;;;;;;17.80;12.45;;;;;;;1.80;100.00;96191.38;1225017;75;2917701;-64
2023/12/01 01:53:06;;;;;;;14.65;11.35;;;;;;;1.88;100.00;96192.56;1225239;75;2914278;-64
2023/12/01 01:55:39;;;;;;;14.00;10.60;;;;;;;1.90;100.00;96184.75;1225425;75;2920887;-64
2023/12/01 01:58:16;;;;;;;11.20;8.70;;;;;;;1.98;100.00;96187.91;1225627;75;2913827;-65
2023/12/01 02:00:52;;;;;;;12.45;9.20;;;;;;;1.97;100.00;96189.84;1224625;75;2922334;-67
2023/12/01 02:03:25;;;;;;;10.90;8.05;;;;;;;1.94;100.00;96190.75;1224539;75;2915870;-63
2023/12/01 02:05:58;;;;;;;12.00;9.80;;;;;;;1.60;100.00;96191.88;1225300;75;2921367;-64
2023/12/01 02:08:33;;;;;;;14.45;11.45;;;;;;;1.60;100.00;96194.56;1225843;75;2910748;-64
2023/12/01 02:11:06;;;;;;;13.70;11.40;;;;;;;1.55;100.00;96189.78;1225687;75;2919624;-67
2023/12/01 02:13:43;;;;;;;16.05;12.85;;;;;;;1.41;100.00;96191.88;1225401;75;2926450;-65
2023/12/01 02:16:16;;;;;;;16.30;13.20;;;;;;;1.59;100.00;96184.97;1223955;75;2924712;-65
2023/12/01 02:18:49;;;;;;;16.40;12.70;;;;;;;1.52;100.00;96191.44;1223728;75;3016305;-64
2023/12/01 02:21:27;;;;;;;15.15;12.15;;;;;;;1.63;100.00;96191.69;1225165;67;2912487;-67
2023/12/01 02:24:03;;;;;;;14.20;11.30;;;;;;;1.64;100.00;96203.25;1226112;75;2915773;-63
2023/12/01 02:26:36;;;;;;;12.55;10.60;;;;;;;1.64;100.00;96206.69;1225411;75;2916403;-64
2023/12/01 02:29:09;;;;;;;13.25;10.50;;;;;;;1.63;100.00;96207.88;1224858;75;2916522;-67
2023/12/01 02:31:42;;;;;;;20.75;15.75;;;;;;;1.40;100.00;96206.56;1225042;75;2913757;-65
2023/12/01 02:34:14;;;;;;;25.70;19.10;;;;;;;1.32;100.00;96194.56;1224336;75;2919073;-63
2023/12/01 02:36:47;;;;;;;24.35;16.95;;;;;;;1.65;100.00;96202.03;1224375;75;2919037;-62
2023/12/01 02:39:23;;;;;;;16.10;13.15;;;;;;;1.62;100.00;96186.78;1223684;75;2926318;-63
2023/12/01 02:41:56;;;;;;;22.15;17.40;;;;;;;1.45;100.00;96180.94;1222842;75;2925768;-62
2023/12/01 02:44:28;;;;;;;18.15;15.00;;;;;;;1.80;100.00;96185.97;1224157;75;2930495;-65
2023/12/01 02:47:01;;;;;;;16.05;12.55;;;;;;;1.84;100.00;96178.47;1224572;75;2917034;-64
2023/12/01 02:49:34;;;;;;;12.00;10.10;;;;;;;1.97;100.00;96186.38;1223607;75;2922368;-63
2023/12/01 02:52:07;;;;;;;11.10;8.75;;;;;;;1.95;100.00;96194.19;1223702;75;2931702;-65
2023/12/01 02:54:42;;;;;;;9.60;7.85;;;;;;;1.94;100.00;96193.44;1223870;75;2942317;-63
2023/12/01 02:57:15;;;;;;;11.45;9.25;;;;;;;1.74;100.00;96198.59;1224149;75;2929679;-64
2023/12/01 02:59:48;;;;;;;13.40;10.75;;;;;;;1.79;100.00;96198.72;1223727;75;2928351;-63
2023/12/01 03:02:21;;;;;;;11.35;9.05;;;;;;;1.97;100.00;96203.31;1224945;75;2914572;-62
2023/12/01 03:04:54;;;;;;;10.60;8.75;;;;;;;1.95;100.00;96213.84;1225399;75;2914190;-64
2023/12/01 03:07:26;;;;;;;14.90;10.65;;;;;;;1.65;100.00;96210.13;1224945;75;2920401;-64
2023/12/01 03:10:02;;;;;;;21.20;14.65;;;;;;;1.42;100.00;96211.47;1225072;75;2915563;-62
2023/12/01 03:12:35;;;;;;;18.90;14.65;;;;;;;1.46;100.00;96204.75;1224959;75;2921653;-64
2023/12/01 03:15:11;;;;;;;18.45;13.55;;;;;;;1.51;100.00;96198.00;1224074;75;2922870;-62
2023/12/01 03:17:44;;;;;;;15.35;13.05;;;;;;;1.70;100.00;96190.66;1225105;75;2919821;-65
2023/12/01 03:20:18;;;;;;;16.45;11.65;;;;;;;1.63;100.00;96193.66;1225042;75;2916677;-63
2023/12/01 03:22:52;;;;;;;15.45;11.50;;;;;;;1.74;100.00;96193.19;1225442;75;2913568;-65
2023/12/01 03:25:28;;;;;;;14.15;10.60;;;;;;;1.90;100.00;96185.53;1224654;75;2923018;-64
2023/12/01 03:28:01;;;;;;;13.55;10.25;;;;;;;1.88;100.00;96179.09;1225128;75;2917738;-64
2023/12/01 03:30:33;;;;;;;11.05;9.60;;;;;;;1.94;100.00;96181.91;1224774;75;2919588;-64
2023/12/01 03:33:06;;;;;;;9.40;7.60;;;;;;;1.87;100.00;96182.97;1225289;75;2917963;-66
2023/12/01 03:35:39;;;;;;;10.30;7.60;;;;;;;1.87;100.00;96181.00;1225434;75;2916345;-65
2023/12/01 03:38:12;;;;;;;16.45;13.00;;;;;;;1.50;100.00;96177.63;1224935;75;2918325;-63
2023/12/01 03:40:47;;;;;;;21.80;17.15;;;;;;;1.40;100.00;96179.59;1224897;75;2921197;-63
2023/12/01 03:43:20;;;;;;;20.10;15.15;;;;;;;1.68;100.00;96177.63;1224321;75;2922879;-61
2023/12/01 03:45:53;;;;;;;14.55;11.50;;;;;;;1.83;100.00;96177.75;1224839;75;2914206;-64
2023/12/01 03:48:25;;;;;;;16.10;11.80;;;;;;;1.63;100.00;96175.50;1224170;75;2924313;-67
2023/12/01 03:50:58;;;;;;;21.00;15.65;;;;;;;1.54;100.00;96174.78;1224773;75;2929671;-66
2023/12/01 03:53:31;;;;;;;19.80;14.95;;;;;;;1.68;100.00;96166.06;1224808;75;2917763;-63
2023/12/01 03:56:09;;;;;;;17.30;12.35;;;;;;;1.83;100.00;96158.13;1224789;75;2923139;-65
2023/12/01 03:58:42;;;;;;;11.95;9.90;;;;;;;1.99;100.00;96157.00;1224675;75;2923974;-61
2023/12/01 04:01:15;;;;;;;11.05;8.80;;;;;;;2.01;100.00;96152.63;1224457;75;2930602;-63
2023/12/01 04:03:47;;;;;;;10.60;8.50;;;;;;;1.80;100.00;96156.31;1224491;75;2926795;-65
2023/12/01 04:06:20;;;;;;;13.00;9.40;;;;;;;1.86;100.00;96152.53;1224230;75;2920291;-64
2023/12/01 04:08:54;;;;;;;12.90;9.60;;;;;;;1.74;100.00;96160.81;1224611;75;2918252;-63
2023/12/01 04:11:29;;;;;;;14.75;11.40;;;;;;;1.52;100.00;96175.25;1224643;75;2918878;-64
2023/12/01 04:14:03;;;;;;;14.75;12.20;;;;;;;1.47;100.00;96173.91;1225113;75;2922431;-63
2023/12/01 04:16:36;;;;;;;17.80;13.25;;;;;;;1.47;100.00;96170.47;1223978;75;2917460;-64
2023/12/01 04:19:09;;;;;;;19.50;14.45;;;;;;;1.43;100.00;96165.22;1224357;75;2924575;-64
2023/12/01 04:21:42;;;;;;;21.35;15.15;;;;;;;1.36;100.00;96170.16;1225110;75;2920057;-62
2023/12/01 04:24:15;;;;;;;22.85;16.65;;;;;;;1.38;100.00;96167.78;1224965;75;2919966;-63
2023/12/01 04:26:51;;;;;;;20.25;14.80;;;;;;;1.54;100.00;96169.38;1225234;75;2923689;-64
2023/12/01 04:29:24;;;;;;;21.85;15.15;;;;;;;1.40;100.00;96176.91;1225119;75;2921474;-64
2023/12/01 04:31:56;;;;;;;21.00;15.25;;;;;;;1.28;100.00;96170.47;1223358;75;2925079;-64
2023/12/01 04:34:29;;;;;;;21.60;15.65;;;;;;;1.41;100.00;96173.00;1225369;75;2914479;-62
2023/12/01 04:37:09;;;;;;;20.05;15.15;;;;;;;1.42;100.00;96184.53;1224820;67;2918753;-63
2023/12/01 04:39:42;;;;;;;23.20;16.10;;;;;;;1.32;100.00;96180.34;1224907;75;2923151;-63
2023/12/01 04:42:17;;;;;;;22.90;17.85;;;;;;;1.22;100.00;96168.81;1223844;75;2948201;-62
2023/12/01 04:44:50;;;;;;;24.50;17.55;;;;;;;1.18;100.00;96162.81;1224714;75;2918738;-61
2023/12/01 04:47:23;;;;;;;24.85;18.20;;;;;;;1.13;100.00;96164.19;1224958;75;2919583;-65
2023/12/01 04:49:57;;;;;;;23.20;17.70;;;;;;;1.11;100.00;96165.81;1224184;75;2923345;-65
2023/12/01 04:52:30;;;;;;;22.75;15.85;;;;;;;1.29;100.00;96179.28;1224713;75;2919065;-64
2023/12/01 04:55:03;;;;;;;25.00;16.55;;;;;;;1.33;100.00;96163.72;1225175;75;2917117;-63
2023/12/01 04:57:38;;;;;;;25.25;16.70;;;;;;;1.17;100.00;96189.03;1224041;75;2918389;-63
2023/12/01 05:00:25;;;;;;;23.70;17.60;;;;;;;1.34;100.00;96156.38;1224836;75;2919547;-68
2023/12/01 05:03:00;;;;;;;24.70;18.15;;;;;;;1.04;100.00;96164.91;1224632;75;2920816;-65
2023/12/01 05:05:35;;;;;;;20.90;16.15;;;;;;;1.40;100.00;96157.28;1225066;75;2916252;-66
2023/12/01 05:08:10;;;;;;;23.30;16.20;;;;;;;1.34;100.00;96153.69;1224512;75;2916981;-65
2023/12/01 05:10:44;;;;;;;21.90;16.30;;;;;;;1.24;100.00;96150.25;1224375;75;2936659;-65
2023/12/01 05:13:20;;;;;;;22.15;16.80;;;;;;;1.25;100.00;96151.72;1224001;75;2930992;-67
2023/12/01 05:15:53;;;;;;;27.80;21.30;;;;;;;1.14;100.00;96154.88;1224789;75;2917776;-65
2023/12/01 05:18:28;;;;;;;28.55;19.45;;;;;;;1.08;100.00;96170.16;1224002;75;2921097;-63
2023/12/01 05:21:01;;;;;;;27.20;19.55;;;;;;;1.15;100.00;96158.34;1224231;75;2930251;-65
2023/12/01 05:23:34;;;;;;;31.45;21.75;;;;;;;0.98;100.00;96165.97;1223616;75;2922285;-64
2023/12/01 05:26:07;;;;;;;31.95;21.55;;;;;;;1.01;100.00;96155.03;1222887;75;2918478;-64
2023/12/01 05:28:42;;;;;;;31.35;20.50;;;;;;;1.11;100.00;96171.97;1224764;75;2923763;-65
2023/12/01 05:31:16;;;;;;;25.20;18.55;;;;;;;1.10;100.00;96177.78;1223617;75;2920987;-67
2023/12/01 05:33:49;;;;;;;29.00;21.25;;;;;;;0.96;100.00;96179.91;1224536;75;2917993;-62
2023/12/01 05:36:22;;;;;;;27.15;19.85;;;;;;;1.12;100.00;96186.19;1223708;75;2926292;-64
2023/12/01 05:38:55;;;;;;;26.45;18.60;;;;;;;1.19;100.00;96189.31;1224695;75;2872058;-64
2023/12/01 05:41:28;;;;;;;24.10;17.75;;;;;;;1.08;100.00;96177.50;1223333;75;2924557;-65
2023/12/01 05:44:03;;;;;;;26.85;18.55;;;;;;;1.05;100.00;96181.84;1224345;75;2922223;-65
2023/12/01 05:46:36;;;;;;;27.95;20.85;;;;;;;1.13;100.00;96191.13;1223952;75;2925233;-63
2023/12/01 05:49:10;;;;;;;27.65;19.25;;;;;;;1.10;100.00;96185.88;1223164;75;2946138;-63
2023/12/01 05:51:42;;;;;;;26.65;18.55;;;;;;;1.21;100.00;96194.28;1223682;75;2927344;-63
2023/12/01 05:54:18;;;;;;;28.20;20.20;;;;;;;1.12;100.00;96191.56;1224043;75;2930740;-64
2023/12/01 05:56:51;;;;;;;23.55;17.15;;;;;;;1.36;100.00;96195.16;1224010;75;2919594;-63
2023/12/01 05:59:27;;;;;;;20.50;14.35;;;;;;;1.42;100.00;96189.91;1223711;75;2923159;-63
2023/12/01 06:01:59;;;;;;;23.30;16.85;;;;;;;1.29;100.00;96195.47;1224296;75;2920597;-66
2023/12/01 06:04:32;;;;;;;23.10;17.65;;;;;;;1.09;100.00;96189.78;1223926;75;2925107;-62
2023/12/01 06:07:07;;;;;;;27.65;18.95;;;;;;;1.09;100.00;96192.47;1223606;75;2903662;-65
2023/12/01 06:09:40;;;;;;;24.15;17.05;;;;;;;1.22;100.00;96182.28;1224429;75;2915554;-62
2023/12/01 06:12:13;;;;;;;25.20;17.80;;;;;;;1.19;100.00;96199.38;1223854;75;2924956;-64
2023/12/01 06:14:49;;;;;;;24.80;16.80;;;;;;;1.26;100.00;96197.13;1223566;75;2920349;-63
2023/12/01 06:17:21;;;;;;;20.35;14.95;;;;;;;1.59;100.00;96184.97;1224428;75;2921221;-62
2023/12/01 06:19:54;;;;;;;20.30;14.20;;;;;;;1.47;100.00;96190.09;1223902;75;2919606;-62
2023/12/01 06:22:27;;;;;;;17.55;12.50;;;;;;;1.63;100.00;96185.56;1223257;75;2956554;-63
2023/12/01 06:25:00;;;;;;;15.30;11.05;;;;;;;1.57;100.00;96188.13;1224112;75;2917436;-62
2023/12/01 06:27:33;;;;;;;21.55;13.70;;;;;;;1.39;100.00;96188.88;1224276;75;2926042;-63
2023/12/01 06:30:12;;;;;;;23.90;16.00;;;;;;;1.28;100.00;96193.97;1223399;75;2922654;-63
2023/12/01 06:32:48;;;;;;;25.00;16.55;;;;;;;1.45;100.00;96197.13;1223108;75;2924142;-63
2023/12/01 06:35:24;;;;;;;24.00;15.50;;;;;;;1.46;100.00;96206.69;1223899;75;2924778;-66
2023/12/01 06:37:57;;;;;;;20.00;13.85;;;;;;;1.65;100.00;96200.09;1224101;75;2932372;-65
2023/12/01 06:40:33;;;;;;;17.80;12.70;;;;;;;1.75;100.00;96208.19;1225323;75;2910016;-64
2023/12/01 06:43:09;;;;;;;15.30;10.90;;;;;;;1.76;100.00;96204.28;1224030;75;2931415;-67
2023/12/01 06:45:44;;;;;;;12.15;9.10;;;;;;;1.91;100.00;96210.56;1224332;75;2921550;-63
2023/12/01 06:48:17;;;;;;;14.25;10.30;;;;;;;1.77;100.00;96206.53;1224509;75;2926050;-62
2023/12/01 06:50:50;;;;;;;12.65;9.05;;;;;;;1.98;100.00;96204.09;1224146;75;2924535;-64
2023/12/01 06:53:23;;;;;;;15.15;9.90;;;;;;;1.76;100.00;96210.44;1223895;75;2937614;-63
2023/12/01 06:55:56;;;;;;;12.95;10.05;;;;;;;1.70;100.00;96217.63;1223900;75;2921298;-64
2023/12/01 06:58:29;;;;;;;12.45;8.85;;;;;;;1.95;100.00;96215.78;1223810;75;2935374;-67
2023/12/01 07:01:04;;;;;;;14.90;10.55;;;;;;;1.89;100.00;96212.94;1224213;75;2928177;-64
2023/12/01 07:03:37;;;;;;;16.55;11.85;;;;;;;1.85;100.00;96209.66;1223988;75;2934910;-64
2023/12/01 07:06:11;;;;;;;21.80;16.15;;;;;;;1.55;100.00;96214.03;1224335;75;2926116;-67
2023/12/01 07:08:44;;;;;;;27.50;18.50;;;;;;;1.59;100.00;96220.78;1222813;75;2909965;-67
2023/12/01 07:11:17;;;;;;;28.80;19.15;;;;;;;1.53;100.00;96221.84;1223836;75;2930163;-65
2023/12/01 07:13:50;;;;;;;33.00;21.05;;;;;;;1.40;100.00;96224.69;1224178;75;2924771;-64
2023/12/01 07:16:26;;;;;;;25.10;17.40;;;;;;;1.71;100.00;96213.75;1224560;75;2927943;-66
2023/12/01 07:18:59;;;;;;;29.55;19.30;;;;;;;1.48;100.00;96223.19;1223077;75;2928884;-65
2023/12/01 07:21:32;;;;;;;33.85;21.35;;;;;;;1.33;100.00;96230.38;1223829;75;2935069;-63
2023/12/01 07:24:07;;;;;;;27.95;19.90;;;;;;;1.41;100.00;96228.88;1222664;75;2922806;-62
2023/12/01 07:26:40;;;;;;;38.85;22.45;;;;;;;1.39;100.00;96209.69;1224151;75;2929120;-65
2023/12/01 07:29:13;;;;;;;30.95;20.75;;;;;;;1.53;100.00;96213.75;1224143;75;2922221;-64
2023/12/01 07:31:49;;;;;;;26.95;17.95;;;;;;;1.55;100.00;96220.19;1219422;75;3086790;-64
2023/12/01 07:34:22;;;;;;;27.75;18.35;;;;;;;1.63;100.00;96234.84;1224687;75;2923934;-64
2023/12/01 07:36:56;;;;;;;29.20;18.70;;;;;;;1.67;100.00;96227.38;1223747;75;2923544;-65
2023/12/01 07:39:29;;;;;;;29.50;19.45;;;;;;;1.49;100.00;96220.03;1223411;75;2922739;-64
2023/12/01 07:42:02;;;;;;;30.50;20.15;;;;;;;1.55;100.00;96216.75;1221959;75;2990487;-63
2023/12/01 07:44:34;;;;;;;33.40;21.15;;;;;;;1.39;100.00;96217.78;1223262;75;2926542;-65
2023/12/01 07:47:11;;;;;;;31.85;21.35;;;;;;;1.48;100.00;96221.22;1223579;75;2921191;-62
2023/12/01 07:49:44;;;;;;;30.00;19.55;;;;;;;1.68;100.00;96220.78;1223803;67;2923819;-63
2023/12/01 07:52:17;;;;;;;25.40;16.80;;;;;;;1.74;100.00;96206.69;1224189;75;2922400;-64
2023/12/01 07:54:50;;;;;;;21.80;15.60;;;;;;;1.74;100.00;96207.44;1224196;75;2920250;-65
2023/12/01 07:57:23;;;;;;;20.25;14.05;;;;;;;1.88;100.00;96212.22;1224595;75;2920968;-68
2023/12/01 07:59:56;;;;;;;21.90;14.25;;;;;;;1.84;100.00;96218.97;1223152;75;2924026;-63
2023/12/01 08:02:31;;;;;;;25.70;16.75;;;;;;;1.62;100.00;96222.56;1223739;75;2922251;-64
2023/12/01 08:05:04;;;;;;;26.25;17.15;;;;;;;1.68;100.00;96231.56;1222998;75;2924933;-64
2023/12/01 08:07:37;;;;;;;23.25;15.80;;;;;;;1.71;100.00;96219.13;1223645;75;2930335;-62
2023/12/01 08:10:14;;;;;;;21.95;14.50;;;;;;;1.82;100.00;96214.00;1219941;75;3160878;-64
2023/12/01 08:12:49;;;;;;;24.80;16.10;;;;;;;1.70;100.00;96206.81;1223423;75;2924561;-64
2023/12/01 08:15:23;;;;;;;19.10;14.00;;;;;;;1.71;100.00;96219.13;1223517;75;2935455;-64
2023/12/01 08:18:00;;;;;;;19.20;13.45;;;;;;;1.70;100.00;96209.53;1223583;75;2925935;-63
2023/12/01 08:20:33;;;;;;;24.80;17.05;;;;;;;1.61;100.00;96213.00;1224834;75;2925209;-63
2023/12/01 08:23:06;;;;;;;22.55;14.65;;;;;;;1.75;100.00;96205.47;1223991;75;2931118;-61
2023/12/01 08:25:39;;;;;;;21.05;14.70;;;;;;;1.90;100.00;96217.13;1224572;75;2919764;-64
2023/12/01 08:28:11;;;;;;;20.45;15.10;;;;;;;1.74;100.00;96206.69;1224792;75;2917095;-64
2023/12/01 08:30:44;;;;;;;21.00;15.25;;;;;;;1.80;100.00;96204.88;1224302;75;2921009;-66
2023/12/01 08:33:20;;;;;;;18.60;13.75;;;;;;;1.83;100.00;96199.31;1223583;75;2924044;-64
2023/12/01 08:35:52;;;;;;;19.10;13.20;;;;;;;1.81;100.00;96200.97;1223909;75;2926221;-65
2023/12/01 08:38:25;;;;;;;20.90;14.80;;;;;;;1.84;100.00;96203.50;1223291;75;2924886;-63
2023/12/01 08:40:58;;;;;;;19.65;13.75;;;;;;;2.03;100.00;96188.03;1224354;75;2906793;-64
2023/12/01 08:43:31;;;;;;;14.35;10.80;;;;;;;2.07;100.00;96196.72;1224856;75;2922879;-63
2023/12/01 08:46:04;;;;;;;13.65;10.25;;;;;;;2.28;100.00;96184.19;1224099;75;2928478;-65
2023/12/01 08:48:40;;;;;;;11.85;9.20;;;;;;;2.52;100.00;96194.28;1223635;75;2928162;-63
2023/12/01 08:51:13;;;;;;;13.35;8.50;;;;;;;2.51;100.00;96198.94;1224804;75;2929608;-63
2023/12/01 08:53:45;;;;;;;12.35;8.70;;;;;;;2.49;100.00;96212.16;1223328;75;2922997;-62
2023/12/01 08:56:18;;;;;;;16.45;11.65;;;;;;;2.17;100.00;96197.44;1222358;75;2921872;-64
2023/12/01 08:58:51;;;;;;;20.15;14.00;;;;;;;2.06;100.00;96203.31;1224395;75;2923883;-65
2023/12/01 09:01:24;;;;;;;20.45;13.05;;;;;;;2.19;100.00;96186.16;1223383;75;2936712;-64
2023/12/01 09:03:59;;;;;;;19.95;13.60;;;;;;;2.34;100.00;96195.13;1223392;75;2932536;-62
2023/12/01 09:06:32;;;;;;;20.45;14.40;;;;;;;2.21;100.00;96198.00;1222351;75;2919101;-66
2023/12/01 09:09:05;;;;;;;25.20;16.60;;;;;;;2.10;100.00;96205.84;1224211;75;2923677;-67
2023/12/01 09:11:38;;;;;;;24.45;17.10;;;;;;;2.25;100.00;96204.00;1222737;75;2927045;-62
2023/12/01 09:14:11;;;;;;;26.05;16.45;;;;;;;2.40;100.00;96216.84;1224903;75;2922793;-65
2023/12/01 09:16:43;;;;;;;19.80;14.15;;;;;;;2.55;100.00;96218.44;1223943;75;2923458;-63
2023/12/01 09:19:19;;;;;;;20.60;13.65;;;;;;;2.45;100.00;96214.25;1222925;75;2914792;-62
2023/12/01 09:21:52;;;;;;;23.55;16.50;;;;;;;2.26;100.00;96218.25;1224840;75;2925934;-64
2023/12/01 09:24:25;;;;;;;24.95;17.35;;;;;;;2.11;100.00;96215.44;1224235;75;2920819;-64
2023/12/01 09:26:57;;;;;;;20.45;13.95;;;;;;;2.53;100.00;96217.41;1223907;75;2926561;-64
2023/12/01 09:29:30;;;;;;;24.25;16.85;;;;;;;2.04;100.00;96227.28;1224393;75;2922880;-64
2023/12/01 09:32:03;;;;;;;25.15;16.00;;;;;;;2.31;100.00;96221.09;1224683;75;2915661;-63
2023/12/01 09:34:39;;;;;;;24.10;17.35;;;;;;;2.15;100.00;96223.41;1223957;75;2916017;-66
2023/12/01 09:37:12;;;;;;;22.60;15.65;;;;;;;2.09;100.00;96221.31;1224404;75;2942689;-65
2023/12/01 09:39:45;;;;;;;26.95;15.85;;;;;;;2.08;100.00;96211.69;1224207;75;2921286;-64
2023/12/01 09:42:19;;;;;;;19.15;13.65;;;;;;;2.55;100.00;96207.63;1223766;75;2915729;-63
2023/12/01 09:44:53;;;;;;;19.35;12.70;;;;;;;2.46;100.00;96204.22;1225348;75;2912418;-63
2023/12/01 09:47:29;;;;;;;16.50;12.20;;;;;;;2.48;100.00;96210.69;1223607;75;2921930;-66
2023/12/01 09:50:05;;;;;;;20.35;14.80;;;;;;;2.24;100.00;96202.50;1224804;75;2919953;-65
2023/12/01 09:52:38;;;;;;;20.90;14.75;;;;;;;2.37;100.00;96204.25;1224229;75;2929094;-63
2023/12/01 09:55:11;;;;;;;19.10;13.00;;;;;;;2.47;100.00;96195.66;1224844;75;2921214;-64
2023/12/01 09:57:46;;;;;;;21.90;14.70;;;;;;;2.37;100.00;96194.22;1224110;75;2928559;-63
2023/12/01 10:00:20;;;;;;;17.90;12.40;;;;;;;2.58;100.00;96200.56;1224470;75;2916753;-63
2023/12/01 10:02:52;;;;;;;20.70;15.15;;;;;;;2.38;100.00;96190.28;1223873;75;2925207;-65
2023/12/01 10:05:28;;;;;;;20.30;13.85;;;;;;;2.43;100.00;96178.88;1223252;67;2944498;-66
2023/12/01 10:08:04;;;;;;;22.00;16.65;;;;;;;2.35;100.00;96175.00;1224833;75;2920443;-62
2023/12/01 10:10:36;;;;;;;19.20;14.00;;;;;;;2.68;100.00;96166.91;1224509;75;2924288;-65
2023/12/01 10:13:10;;;;;;;15.70;11.50;;;;;;;2.96;100.00;96159.38;1224224;75;2927094;-64
2023/12/01 10:15:44;;;;;;;12.10;9.60;;;;;;;3.06;100.00;96164.72;1224191;75;2925262;-63
2023/12/01 10:18:19;;;;;;;22.85;14.65;;;;;;;2.38;100.00;96165.25;1224293;75;2920458;-63
2023/12/01 10:21:07;;;;;;;26.30;16.05;;;;;;;2.42;100.00;96171.97;1224614;75;2916361;-66
2023/12/01 10:23:40;;;;;;;20.60;14.20;;;;;;;2.68;100.00;96166.16;1224705;75;2918066;-64
2023/12/01 10:26:13;;;;;;;15.90;12.10;;;;;;;2.90;100.00;96150.38;1223046;75;2932334;-62
2023/12/01 10:28:46;;;;;;;14.25;10.05;;;;;;;3.08;100.00;96159.56;1218356;75;3301761;-63
2023/12/01 10:31:20;;;;;;;15.15;11.15;;;;;;;2.87;100.00;96140.50;1224640;75;2918629;-63
2023/12/01 10:33:53;;;;;;;17.45;12.40;;;;;;;2.86;100.00;96136.31;1224909;75;2922752;-65
2023/12/01 10:36:28;;;;;;;15.80;11.90;;;;;;;2.93;100.00;96141.34;1223979;75;2935528;-64
2023/12/01 10:39:01;;;;;;;19.00;14.10;;;;;;;3.03;100.00;96138.59;1225256;75;2929684;-66
2023/12/01 10:41:34;;;;;;;22.85;15.65;;;;;;;2.75;100.00;96144.19;1224660;75;2929165;-65
2023/12/01 10:44:07;;;;;;;16.35;12.65;;;;;;;3.02;100.00;96137.09;1224463;75;2919466;-66
2023/12/01 10:46:41;;;;;;;17.75;13.05;;;;;;;2.82;100.00;96141.16;1224370;75;2935618;-64
2023/12/01 10:49:17;;;;;;;18.15;13.20;;;;;;;2.82;100.00;96138.44;1224280;75;2926689;-67
2023/12/01 10:51:55;;;;;;;16.00;11.80;;;;;;;3.03;100.00;96131.25;1224922;75;2915524;-63
2023/12/01 10:54:29;;;;;;;16.50;11.85;;;;;;;3.07;100.00;96139.16;1224854;75;2930226;-64
2023/12/01 10:57:17;;;;;;;14.05;10.50;;;;;;;3.32;100.00;96141.38;1225548;75;2916192;-62
2023/12/01 10:59:56;;;;;;;;;;;;;;;3.27;100.00;96144.72;1226653;75;2919561;-64
2023/12/01 11:02:30;;;;;;;12.45;9.65;;;;;;;3.50;100.00;96126.91;1225356;75;2924894;-63
2023/12/01 11:05:04;;;;;;;11.05;8.35;;;;;;;3.48;100.00;96120.47;1225114;75;2919637;-64
2023/12/01 11:07:59;;;;;;;13.70;10.10;;;;;;;3.28;100.00;96115.72;1224204;75;2925032;-62
2023/12/01 11:10:42;;;;;;;13.25;10.15;;;;;;;3.42;100.00;96123.84;1224914;75;2924909;-64
2023/12/01 11:13:31;;;;;;;19.60;13.95;;;;;;;3.12;100.00;96130.41;1224581;75;2922434;-63
2023/12/01 11:16:05;;;;;;;15.40;10.70;;;;;;;3.17;100.00;96135.91;1225137;75;2924661;-66
2023/12/01 11:18:39;;;;;;;21.95;16.10;;;;;;;2.88;100.00;96123.06;1224763;75;2920736;-63
2023/12/01 11:21:12;;;;;;;20.10;15.20;;;;;;;2.86;100.00;96124.75;1224134;75;2917550;-63
2023/12/01 11:23:49;;;;;;;23.70;18.50;;;;;;;2.62;100.00;96119.34;1224073;75;2923548;-63
2023/12/01 11:26:21;;;;;;;22.45;15.90;;;;;;;2.73;100.00;96111.47;1223670;75;2918749;-64
2023/12/01 11:29:09;;;;;;;20.50;15.20;;;;;;;2.75;100.00;96109.06;1223870;75;2927259;-65
2023/12/01 11:31:54;;;;;;;21.60;15.40;;;;;;;2.63;100.00;96115.44;1224776;75;2918404;-63